sensor_id;sensor_type;location;lat;lon;timestamp;temperature;humidity
31074;DHT22;17730;53.552;9.940;2022-12-07T00:01:05;4.10;99.90
31074;DHT22;17730;53.552;9.940;2022-12-07T00:03:31;4.10;99.90
31074;DHT22;17730;53.552;9.940;2022-12-07T00:06:02;4.10;99.90
31074;DHT22;17730;53.552;9.940;2022-12-07T00:08:28;4.10;99.90
31074;DHT22;17730;53.552;9.940;2022-12-07T00:10:53;4.20;99.90
31074;DHT22;17730;53.552;9.940;2022-12-07T00:13:19;4.20;99.90
31074;DHT22;17730;53.552;9.940;2022-12-07T00:15:45;4.20;99.90
31074;DHT22;17730;53.552;9.940;2022-12-07T00:18:10;4.20;99.90
31074;DHT22;17730;53.552;9.940;2022-12-07T00:20:36;4.30;99.90
31074;DHT22;17730;53.552;9.940;2022-12-07T00:23:02;4.30;99.90
31074;DHT22;17730;53.552;9.940;2022-12-07T00:25:27;4.30;99.90
31074;DHT22;17730;53.552;9.940;2022-12-07T00:27:53;4.30;99.90
31074;DHT22;17730;53.552;9.940;2022-12-07T00:30:22;4.30;99.90
31074;DHT22;17730;53.552;9.940;2022-12-07T00:32:48;4.30;99.90
31074;DHT22;17730;53.552;9.940;2022-12-07T00:35:13;4.30;99.90
31074;DHT22;17730;53.552;9.940;2022-12-07T00:37:39;4.30;99.90
31074;DHT22;17730;53.552;9.940;2022-12-07T00:40:05;4.30;99.90
31074;DHT22;17730;53.552;9.940;2022-12-07T00:42:31;4.30;99.90
31074;DHT22;17730;53.552;9.940;2022-12-07T00:44:57;4.30;99.90
31074;DHT22;17730;53.552;9.940;2022-12-07T00:47:22;4.30;99.90
31074;DHT22;17730;53.552;9.940;2022-12-07T00:49:48;4.30;99.90
31074;DHT22;17730;53.552;9.940;2022-12-07T00:52:14;4.40;99.90
31074;DHT22;17730;53.552;9.940;2022-12-07T00:54:40;4.40;99.90
31074;DHT22;17730;53.552;9.940;2022-12-07T00:57:05;4.40;99.90
31074;DHT22;17730;53.552;9.940;2022-12-07T00:59:31;4.40;99.90
31074;DHT22;17730;53.552;9.940;2022-12-07T01:01:56;4.40;99.90
31074;DHT22;17730;53.552;9.940;2022-12-07T01:04:22;4.40;99.90
31074;DHT22;17730;53.552;9.940;2022-12-07T01:06:48;4.40;99.90
31074;DHT22;17730;53.552;9.940;2022-12-07T01:09:13;4.30;99.90
31074;DHT22;17730;53.552;9.940;2022-12-07T01:11:39;4.30;99.90
31074;DHT22;17730;53.552;9.940;2022-12-07T01:14:05;4.30;99.90
31074;DHT22;17730;53.552;9.940;2022-12-07T01:16:32;4.20;99.90
31074;DHT22;17730;53.552;9.940;2022-12-07T01:18:58;4.20;99.90
31074;DHT22;17730;53.552;9.940;2022-12-07T01:21:27;4.20;99.90
31074;DHT22;17730;53.552;9.940;2022-12-07T01:23:53;4.20;99.90
31074;DHT22;17730;53.552;9.940;2022-12-07T01:26:21;4.20;99.90
31074;DHT22;17730;53.552;9.940;2022-12-07T01:28:46;4.20;99.90
31074;DHT22;17730;53.552;9.940;2022-12-07T01:31:15;4.20;99.90
31074;DHT22;17730;53.552;9.940;2022-12-07T01:33:43;4.20;99.90
31074;DHT22;17730;53.552;9.940;2022-12-07T01:38:47;4.20;99.90
31074;DHT22;17730;53.552;9.940;2022-12-07T01:41:13;4.30;99.90
31074;DHT22;17730;53.552;9.940;2022-12-07T01:47:03;4.20;99.90
31074;DHT22;17730;53.552;9.940;2022-12-07T01:52:24;4.20;99.90
31074;DHT22;17730;53.552;9.940;2022-12-07T01:54:53;4.20;99.90
31074;DHT22;17730;53.552;9.940;2022-12-07T01:57:20;4.20;99.90
31074;DHT22;17730;53.552;9.940;2022-12-07T01:59:48;4.10;99.90
31074;DHT22;17730;53.552;9.940;2022-12-07T02:02:33;4.10;99.90
31074;DHT22;17730;53.552;9.940;2022-12-07T02:05:01;4.10;99.90
31074;DHT22;17730;53.552;9.940;2022-12-07T02:07:27;4.00;99.90
31074;DHT22;17730;53.552;9.940;2022-12-07T02:09:54;3.90;99.90
31074;DHT22;17730;53.552;9.940;2022-12-07T02:12:20;3.90;99.90
31074;DHT22;17730;53.552;9.940;2022-12-07T02:14:48;3.80;99.90
31074;DHT22;17730;53.552;9.940;2022-12-07T02:17:34;3.80;99.90
31074;DHT22;17730;53.552;9.940;2022-12-07T02:28:05;3.70;99.90
31074;DHT22;17730;53.552;9.940;2022-12-07T02:30:35;3.60;99.90
31074;DHT22;17730;53.552;9.940;2022-12-07T02:33:16;3.60;99.90
31074;DHT22;17730;53.552;9.940;2022-12-07T02:35:51;3.60;99.90
31074;DHT22;17730;53.552;9.940;2022-12-07T02:38:32;3.60;99.90
31074;DHT22;17730;53.552;9.940;2022-12-07T02:43:58;3.60;99.90
31074;DHT22;17730;53.552;9.940;2022-12-07T02:46:48;3.50;99.90
31074;DHT22;17730;53.552;9.940;2022-12-07T02:49:15;3.50;99.90
31074;DHT22;17730;53.552;9.940;2022-12-07T02:51:43;3.50;99.90
31074;DHT22;17730;53.552;9.940;2022-12-07T02:54:20;3.50;99.90
31074;DHT22;17730;53.552;9.940;2022-12-07T02:56:50;3.50;99.90
31074;DHT22;17730;53.552;9.940;2022-12-07T03:05:03;3.60;99.90
31074;DHT22;17730;53.552;9.940;2022-12-07T03:08:06;3.50;99.90
31074;DHT22;17730;53.552;9.940;2022-12-07T03:13:30;3.50;99.90
31074;DHT22;17730;53.552;9.940;2022-12-07T03:19:27;3.40;99.90
31074;DHT22;17730;53.552;9.940;2022-12-07T03:21:56;3.40;99.90
31074;DHT22;17730;53.552;9.940;2022-12-07T03:24:27;3.40;99.90
31074;DHT22;17730;53.552;9.940;2022-12-07T03:27:06;3.40;99.90
31074;DHT22;17730;53.552;9.940;2022-12-07T03:29:50;3.40;99.90
31074;DHT22;17730;53.552;9.940;2022-12-07T03:32:28;3.30;99.90
31074;DHT22;17730;53.552;9.940;2022-12-07T03:35:00;3.30;99.90
31074;DHT22;17730;53.552;9.940;2022-12-07T03:37:32;3.30;99.90
31074;DHT22;17730;53.552;9.940;2022-12-07T03:40:13;3.30;99.90
31074;DHT22;17730;53.552;9.940;2022-12-07T03:42:42;3.30;99.90
31074;DHT22;17730;53.552;9.940;2022-12-07T03:45:08;3.30;99.90
31074;DHT22;17730;53.552;9.940;2022-12-07T03:47:42;3.20;99.90
31074;DHT22;17730;53.552;9.940;2022-12-07T03:50:15;3.20;99.90
31074;DHT22;17730;53.552;9.940;2022-12-07T03:53:05;3.20;99.90
31074;DHT22;17730;53.552;9.940;2022-12-07T03:55:36;3.20;99.90
31074;DHT22;17730;53.552;9.940;2022-12-07T03:58:10;3.10;99.90
31074;DHT22;17730;53.552;9.940;2022-12-07T04:00:36;3.10;99.90
31074;DHT22;17730;53.552;9.940;2022-12-07T04:03:01;3.10;99.90
31074;DHT22;17730;53.552;9.940;2022-12-07T04:05:27;3.10;99.90
31074;DHT22;17730;53.552;9.940;2022-12-07T04:07:53;3.10;99.90
31074;DHT22;17730;53.552;9.940;2022-12-07T04:10:19;3.10;99.90
31074;DHT22;17730;53.552;9.940;2022-12-07T04:12:45;3.10;99.90
31074;DHT22;17730;53.552;9.940;2022-12-07T04:15:11;3.00;99.90
31074;DHT22;17730;53.552;9.940;2022-12-07T04:17:36;3.00;99.90
31074;DHT22;17730;53.552;9.940;2022-12-07T04:20:03;3.00;99.90
31074;DHT22;17730;53.552;9.940;2022-12-07T04:22:29;3.00;99.90
31074;DHT22;17730;53.552;9.940;2022-12-07T04:24:55;3.00;99.90
31074;DHT22;17730;53.552;9.940;2022-12-07T04:27:20;3.00;99.90
31074;DHT22;17730;53.552;9.940;2022-12-07T04:29:46;3.10;99.90
31074;DHT22;17730;53.552;9.940;2022-12-07T04:32:11;3.00;99.90
31074;DHT22;17730;53.552;9.940;2022-12-07T04:34:37;3.00;99.90
31074;DHT22;17730;53.552;9.940;2022-12-07T04:37:03;2.90;99.90
31074;DHT22;17730;53.552;9.940;2022-12-07T04:39:30;3.00;99.90
31074;DHT22;17730;53.552;9.940;2022-12-07T04:41:57;3.00;99.90
31074;DHT22;17730;53.552;9.940;2022-12-07T04:44:24;2.90;99.90
31074;DHT22;17730;53.552;9.940;2022-12-07T04:46:50;2.90;99.90
31074;DHT22;17730;53.552;9.940;2022-12-07T04:49:16;2.90;99.90
31074;DHT22;17730;53.552;9.940;2022-12-07T04:51:42;2.90;99.90
31074;DHT22;17730;53.552;9.940;2022-12-07T04:54:08;2.90;99.90
31074;DHT22;17730;53.552;9.940;2022-12-07T04:56:33;2.90;99.90
31074;DHT22;17730;53.552;9.940;2022-12-07T04:59:00;2.90;99.90
31074;DHT22;17730;53.552;9.940;2022-12-07T05:01:26;2.90;99.90
31074;DHT22;17730;53.552;9.940;2022-12-07T05:03:52;2.90;99.90
31074;DHT22;17730;53.552;9.940;2022-12-07T05:06:18;2.90;99.90
31074;DHT22;17730;53.552;9.940;2022-12-07T05:08:44;2.90;99.90
31074;DHT22;17730;53.552;9.940;2022-12-07T05:11:10;2.90;99.90
31074;DHT22;17730;53.552;9.940;2022-12-07T05:13:56;2.90;99.90
31074;DHT22;17730;53.552;9.940;2022-12-07T05:16:21;3.00;99.90
31074;DHT22;17730;53.552;9.940;2022-12-07T05:18:47;3.00;99.90
31074;DHT22;17730;53.552;9.940;2022-12-07T05:21:12;2.90;99.90
31074;DHT22;17730;53.552;9.940;2022-12-07T05:23:38;3.00;99.90
31074;DHT22;17730;53.552;9.940;2022-12-07T05:26:04;3.00;99.90
31074;DHT22;17730;53.552;9.940;2022-12-07T05:28:29;3.00;99.90
31074;DHT22;17730;53.552;9.940;2022-12-07T05:30:55;3.00;99.90
31074;DHT22;17730;53.552;9.940;2022-12-07T05:33:20;3.00;99.90
31074;DHT22;17730;53.552;9.940;2022-12-07T05:35:46;2.90;99.90
31074;DHT22;17730;53.552;9.940;2022-12-07T05:38:12;2.90;99.90
31074;DHT22;17730;53.552;9.940;2022-12-07T05:40:37;2.80;99.90
31074;DHT22;17730;53.552;9.940;2022-12-07T05:43:03;2.80;99.90
31074;DHT22;17730;53.552;9.940;2022-12-07T05:45:28;2.80;99.90
31074;DHT22;17730;53.552;9.940;2022-12-07T05:47:54;2.90;99.90
31074;DHT22;17730;53.552;9.940;2022-12-07T05:50:20;2.80;99.90
31074;DHT22;17730;53.552;9.940;2022-12-07T05:52:45;2.80;99.90
31074;DHT22;17730;53.552;9.940;2022-12-07T05:55:11;2.70;99.90
31074;DHT22;17730;53.552;9.940;2022-12-07T05:57:36;2.70;99.90
31074;DHT22;17730;53.552;9.940;2022-12-07T06:00:04;2.70;99.90
31074;DHT22;17730;53.552;9.940;2022-12-07T06:02:30;2.70;99.90
31074;DHT22;17730;53.552;9.940;2022-12-07T06:04:55;2.70;99.90
31074;DHT22;17730;53.552;9.940;2022-12-07T06:07:21;2.70;99.90
31074;DHT22;17730;53.552;9.940;2022-12-07T06:09:46;2.70;99.90
31074;DHT22;17730;53.552;9.940;2022-12-07T06:12:12;2.70;99.90
31074;DHT22;17730;53.552;9.940;2022-12-07T06:14:57;2.70;99.90
31074;DHT22;17730;53.552;9.940;2022-12-07T06:17:23;2.60;99.90
31074;DHT22;17730;53.552;9.940;2022-12-07T06:19:49;2.60;99.90
31074;DHT22;17730;53.552;9.940;2022-12-07T06:22:14;2.60;99.90
31074;DHT22;17730;53.552;9.940;2022-12-07T06:24:41;2.60;99.90
31074;DHT22;17730;53.552;9.940;2022-12-07T06:27:07;2.60;99.90
31074;DHT22;17730;53.552;9.940;2022-12-07T06:29:33;2.70;99.90
31074;DHT22;17730;53.552;9.940;2022-12-07T06:31:59;2.70;99.90
31074;DHT22;17730;53.552;9.940;2022-12-07T06:34:25;2.70;99.90
31074;DHT22;17730;53.552;9.940;2022-12-07T06:36:51;2.70;99.90
31074;DHT22;17730;53.552;9.940;2022-12-07T06:39:20;2.70;99.90
31074;DHT22;17730;53.552;9.940;2022-12-07T06:41:46;2.70;99.90
31074;DHT22;17730;53.552;9.940;2022-12-07T06:44:11;2.80;99.90
31074;DHT22;17730;53.552;9.940;2022-12-07T06:46:37;2.70;99.90
31074;DHT22;17730;53.552;9.940;2022-12-07T06:49:04;2.80;99.90
31074;DHT22;17730;53.552;9.940;2022-12-07T06:51:30;2.70;99.90
31074;DHT22;17730;53.552;9.940;2022-12-07T06:53:55;2.70;99.90
31074;DHT22;17730;53.552;9.940;2022-12-07T06:56:21;2.70;99.90
31074;DHT22;17730;53.552;9.940;2022-12-07T06:58:48;2.70;99.90
31074;DHT22;17730;53.552;9.940;2022-12-07T07:01:16;2.70;99.90
31074;DHT22;17730;53.552;9.940;2022-12-07T07:03:43;2.70;99.90
31074;DHT22;17730;53.552;9.940;2022-12-07T07:06:09;2.60;99.90
31074;DHT22;17730;53.552;9.940;2022-12-07T07:08:36;2.60;99.90
31074;DHT22;17730;53.552;9.940;2022-12-07T07:11:02;2.60;99.90
31074;DHT22;17730;53.552;9.940;2022-12-07T07:13:28;2.60;99.90
31074;DHT22;17730;53.552;9.940;2022-12-07T07:15:54;2.60;99.90
31074;DHT22;17730;53.552;9.940;2022-12-07T07:18:20;2.60;99.90
31074;DHT22;17730;53.552;9.940;2022-12-07T07:20:46;2.60;99.90
31074;DHT22;17730;53.552;9.940;2022-12-07T07:23:11;2.60;99.90
31074;DHT22;17730;53.552;9.940;2022-12-07T07:25:37;2.60;99.90
31074;DHT22;17730;53.552;9.940;2022-12-07T07:28:03;2.60;99.90
31074;DHT22;17730;53.552;9.940;2022-12-07T07:30:29;2.60;99.90
31074;DHT22;17730;53.552;9.940;2022-12-07T07:32:59;2.70;99.90
31074;DHT22;17730;53.552;9.940;2022-12-07T07:35:26;2.70;99.90
31074;DHT22;17730;53.552;9.940;2022-12-07T07:37:51;2.70;99.90
31074;DHT22;17730;53.552;9.940;2022-12-07T07:40:17;2.70;99.90
31074;DHT22;17730;53.552;9.940;2022-12-07T07:42:43;2.70;99.90
31074;DHT22;17730;53.552;9.940;2022-12-07T07:45:09;2.80;99.90
31074;DHT22;17730;53.552;9.940;2022-12-07T07:47:34;2.80;99.90
31074;DHT22;17730;53.552;9.940;2022-12-07T07:50:00;2.80;99.90
31074;DHT22;17730;53.552;9.940;2022-12-07T07:52:26;2.80;99.90
31074;DHT22;17730;53.552;9.940;2022-12-07T07:54:52;2.90;99.90
31074;DHT22;17730;53.552;9.940;2022-12-07T07:57:18;3.00;99.90
31074;DHT22;17730;53.552;9.940;2022-12-07T07:59:43;3.10;99.90
31074;DHT22;17730;53.552;9.940;2022-12-07T08:02:14;3.10;99.90
31074;DHT22;17730;53.552;9.940;2022-12-07T08:04:40;3.10;99.90
31074;DHT22;17730;53.552;9.940;2022-12-07T08:07:05;3.10;99.90
31074;DHT22;17730;53.552;9.940;2022-12-07T08:09:31;3.10;99.90
31074;DHT22;17730;53.552;9.940;2022-12-07T08:11:57;3.10;99.90
31074;DHT22;17730;53.552;9.940;2022-12-07T08:14:24;3.10;99.90
31074;DHT22;17730;53.552;9.940;2022-12-07T08:16:49;3.20;99.90
31074;DHT22;17730;53.552;9.940;2022-12-07T08:19:16;3.20;99.90
31074;DHT22;17730;53.552;9.940;2022-12-07T08:21:41;3.20;99.90
31074;DHT22;17730;53.552;9.940;2022-12-07T08:24:07;3.30;99.90
31074;DHT22;17730;53.552;9.940;2022-12-07T08:26:33;3.30;99.90
31074;DHT22;17730;53.552;9.940;2022-12-07T08:28:59;3.30;99.90
31074;DHT22;17730;53.552;9.940;2022-12-07T08:31:24;3.30;99.90
31074;DHT22;17730;53.552;9.940;2022-12-07T08:33:50;3.40;99.90
31074;DHT22;17730;53.552;9.940;2022-12-07T08:36:17;3.40;99.90
31074;DHT22;17730;53.552;9.940;2022-12-07T08:38:43;3.50;99.90
31074;DHT22;17730;53.552;9.940;2022-12-07T08:41:09;3.50;99.90
31074;DHT22;17730;53.552;9.940;2022-12-07T08:43:35;3.60;99.90
31074;DHT22;17730;53.552;9.940;2022-12-07T08:48:46;3.60;99.90
31074;DHT22;17730;53.552;9.940;2022-12-07T08:51:14;3.70;99.90
31074;DHT22;17730;53.552;9.940;2022-12-07T08:53:41;3.70;99.90
31074;DHT22;17730;53.552;9.940;2022-12-07T08:56:07;3.80;99.90
31074;DHT22;17730;53.552;9.940;2022-12-07T08:58:35;3.90;99.90
31074;DHT22;17730;53.552;9.940;2022-12-07T09:01:02;4.00;99.90
31074;DHT22;17730;53.552;9.940;2022-12-07T09:03:28;4.00;99.90
31074;DHT22;17730;53.552;9.940;2022-12-07T09:05:54;4.10;99.90
31074;DHT22;17730;53.552;9.940;2022-12-07T09:08:21;4.10;99.90
31074;DHT22;17730;53.552;9.940;2022-12-07T09:10:48;4.20;99.90
31074;DHT22;17730;53.552;9.940;2022-12-07T09:13:13;4.20;99.90
31074;DHT22;17730;53.552;9.940;2022-12-07T09:15:39;4.20;99.90
31074;DHT22;17730;53.552;9.940;2022-12-07T09:18:05;4.30;99.90
31074;DHT22;17730;53.552;9.940;2022-12-07T09:20:30;4.30;99.90
31074;DHT22;17730;53.552;9.940;2022-12-07T09:22:56;4.40;99.90
31074;DHT22;17730;53.552;9.940;2022-12-07T09:25:22;4.50;99.90
31074;DHT22;17730;53.552;9.940;2022-12-07T09:27:47;4.50;99.90
31074;DHT22;17730;53.552;9.940;2022-12-07T09:30:13;4.50;99.90
31074;DHT22;17730;53.552;9.940;2022-12-07T09:32:39;4.50;99.90
31074;DHT22;17730;53.552;9.940;2022-12-07T09:35:04;4.50;99.90
31074;DHT22;17730;53.552;9.940;2022-12-07T09:37:30;4.60;99.90
31074;DHT22;17730;53.552;9.940;2022-12-07T09:40:00;4.60;99.90
31074;DHT22;17730;53.552;9.940;2022-12-07T09:44:54;4.60;99.90
31074;DHT22;17730;53.552;9.940;2022-12-07T09:47:20;4.60;99.90
31074;DHT22;17730;53.552;9.940;2022-12-07T09:49:46;4.80;99.90
31074;DHT22;17730;53.552;9.940;2022-12-07T09:52:26;5.30;99.90
31074;DHT22;17730;53.552;9.940;2022-12-07T09:54:52;5.50;99.90
31074;DHT22;17730;53.552;9.940;2022-12-07T09:57:25;5.40;99.90
31074;DHT22;17730;53.552;9.940;2022-12-07T09:59:53;5.30;99.90
31074;DHT22;17730;53.552;9.940;2022-12-07T10:02:44;5.10;99.90
31074;DHT22;17730;53.552;9.940;2022-12-07T10:05:17;5.00;99.90
31074;DHT22;17730;53.552;9.940;2022-12-07T10:07:44;4.90;99.90
31074;DHT22;17730;53.552;9.940;2022-12-07T10:10:30;4.90;99.90
31074;DHT22;17730;53.552;9.940;2022-12-07T10:15:49;5.00;99.90
31074;DHT22;17730;53.552;9.940;2022-12-07T10:20:48;5.10;99.90
31074;DHT22;17730;53.552;9.940;2022-12-07T10:23:18;5.10;99.90
31074;DHT22;17730;53.552;9.940;2022-12-07T10:25:44;5.20;99.90
31074;DHT22;17730;53.552;9.940;2022-12-07T10:28:18;5.20;99.90
31074;DHT22;17730;53.552;9.940;2022-12-07T10:30:54;5.20;99.90
31074;DHT22;17730;53.552;9.940;2022-12-07T10:33:37;5.10;99.90
31074;DHT22;17730;53.552;9.940;2022-12-07T10:36:21;5.10;99.90
31074;DHT22;17730;53.552;9.940;2022-12-07T10:39:14;5.10;99.90
31074;DHT22;17730;53.552;9.940;2022-12-07T10:42:00;5.10;99.90
31074;DHT22;17730;53.552;9.940;2022-12-07T10:44:28;5.00;99.90
31074;DHT22;17730;53.552;9.940;2022-12-07T10:50:14;5.60;99.90
31074;DHT22;17730;53.552;9.940;2022-12-07T11:00:42;5.50;99.90
31074;DHT22;17730;53.552;9.940;2022-12-07T11:15:13;5.40;99.90
31074;DHT22;17730;53.552;9.940;2022-12-07T11:17:56;5.30;99.90
31074;DHT22;17730;53.552;9.940;2022-12-07T11:23:11;5.20;99.90
31074;DHT22;17730;53.552;9.940;2022-12-07T11:25:53;5.10;99.90
31074;DHT22;17730;53.552;9.940;2022-12-07T11:31:32;5.10;99.90
31074;DHT22;17730;53.552;9.940;2022-12-07T11:37:31;5.10;99.90
31074;DHT22;17730;53.552;9.940;2022-12-07T11:40:33;5.10;99.90
31074;DHT22;17730;53.552;9.940;2022-12-07T11:43:18;5.10;99.90
31074;DHT22;17730;53.552;9.940;2022-12-07T11:45:51;5.10;99.90
31074;DHT22;17730;53.552;9.940;2022-12-07T11:50:59;5.20;99.90
31074;DHT22;17730;53.552;9.940;2022-12-07T11:56:09;5.30;99.90
31074;DHT22;17730;53.552;9.940;2022-12-07T11:58:56;5.30;99.90
31074;DHT22;17730;53.552;9.940;2022-12-07T12:06:43;5.40;99.90
31074;DHT22;17730;53.552;9.940;2022-12-07T12:09:16;5.50;99.90
31074;DHT22;17730;53.552;9.940;2022-12-07T12:17:16;5.40;99.90
31074;DHT22;17730;53.552;9.940;2022-12-07T12:23:16;5.40;99.90
31074;DHT22;17730;53.552;9.940;2022-12-07T12:25:50;5.40;99.90
31074;DHT22;17730;53.552;9.940;2022-12-07T12:33:35;5.50;99.90
31074;DHT22;17730;53.552;9.940;2022-12-07T12:36:20;5.60;99.90
31074;DHT22;17730;53.552;9.940;2022-12-07T12:41:52;5.80;99.90
31074;DHT22;17730;53.552;9.940;2022-12-07T12:47:04;6.20;99.90
31074;DHT22;17730;53.552;9.940;2022-12-07T12:50:36;6.30;99.90
31074;DHT22;17730;53.552;9.940;2022-12-07T12:56:06;6.30;99.90
31074;DHT22;17730;53.552;9.940;2022-12-07T12:58:41;6.20;99.90
31074;DHT22;17730;53.552;9.940;2022-12-07T13:01:37;6.10;99.90
31074;DHT22;17730;53.552;9.940;2022-12-07T13:04:21;6.10;99.90
31074;DHT22;17730;53.552;9.940;2022-12-07T13:06:48;6.20;99.90
31074;DHT22;17730;53.552;9.940;2022-12-07T13:09:21;6.30;99.90
31074;DHT22;17730;53.552;9.940;2022-12-07T13:11:49;6.20;99.90
31074;DHT22;17730;53.552;9.940;2022-12-07T13:17:03;5.90;99.90
31074;DHT22;17730;53.552;9.940;2022-12-07T13:24:44;6.10;99.90
31074;DHT22;17730;53.552;9.940;2022-12-07T13:27:11;6.00;97.80
31074;DHT22;17730;53.552;9.940;2022-12-07T13:29:37;5.90;99.90
31074;DHT22;17730;53.552;9.940;2022-12-07T13:32:03;5.90;85.60
31074;DHT22;17730;53.552;9.940;2022-12-07T13:34:38;5.90;99.90
31074;DHT22;17730;53.552;9.940;2022-12-07T13:37:32;5.90;1.00
31074;DHT22;17730;53.552;9.940;2022-12-07T13:40:00;5.90;99.90
31074;DHT22;17730;53.552;9.940;2022-12-07T13:42:33;5.80;1.00
31074;DHT22;17730;53.552;9.940;2022-12-07T13:45:22;5.80;1.00
31074;DHT22;17730;53.552;9.940;2022-12-07T13:47:53;5.70;99.90
31074;DHT22;17730;53.552;9.940;2022-12-07T13:52:49;5.60;99.90
31074;DHT22;17730;53.552;9.940;2022-12-07T13:55:16;5.60;99.90
31074;DHT22;17730;53.552;9.940;2022-12-07T13:57:45;5.60;99.90
31074;DHT22;17730;53.552;9.940;2022-12-07T14:00:20;5.60;99.90
31074;DHT22;17730;53.552;9.940;2022-12-07T14:03:03;5.60;99.90
31074;DHT22;17730;53.552;9.940;2022-12-07T14:05:34;5.60;99.90
31074;DHT22;17730;53.552;9.940;2022-12-07T14:08:05;5.60;24.60
31074;DHT22;17730;53.552;9.940;2022-12-07T14:10:34;5.50;99.90
31074;DHT22;17730;53.552;9.940;2022-12-07T14:13:02;5.30;99.90
31074;DHT22;17730;53.552;9.940;2022-12-07T14:15:33;5.20;99.90
31074;DHT22;17730;53.552;9.940;2022-12-07T14:18:01;5.20;99.90
31074;DHT22;17730;53.552;9.940;2022-12-07T14:20:39;5.10;99.90
31074;DHT22;17730;53.552;9.940;2022-12-07T14:23:06;5.10;99.90
31074;DHT22;17730;53.552;9.940;2022-12-07T14:25:46;5.10;1.00
31074;DHT22;17730;53.552;9.940;2022-12-07T14:28:33;5.10;69.60
31074;DHT22;17730;53.552;9.940;2022-12-07T14:31:00;5.10;12.60
31074;DHT22;17730;53.552;9.940;2022-12-07T14:33:26;5.00;99.90
31074;DHT22;17730;53.552;9.940;2022-12-07T14:35:53;5.00;99.90
31074;DHT22;17730;53.552;9.940;2022-12-07T14:38:23;4.90;99.90
31074;DHT22;17730;53.552;9.940;2022-12-07T14:40:51;4.90;99.90
31074;DHT22;17730;53.552;9.940;2022-12-07T14:43:18;4.80;1.00
31074;DHT22;17730;53.552;9.940;2022-12-07T14:45:44;4.80;1.00
31074;DHT22;17730;53.552;9.940;2022-12-07T14:48:14;4.70;13.60
31074;DHT22;17730;53.552;9.940;2022-12-07T14:50:45;4.70;99.90
31074;DHT22;17730;53.552;9.940;2022-12-07T14:53:29;4.60;99.90
31074;DHT22;17730;53.552;9.940;2022-12-07T14:55:55;4.60;99.90
31074;DHT22;17730;53.552;9.940;2022-12-07T14:58:21;4.50;99.90
31074;DHT22;17730;53.552;9.940;2022-12-07T15:00:46;4.50;99.90
31074;DHT22;17730;53.552;9.940;2022-12-07T15:03:12;4.40;99.90
31074;DHT22;17730;53.552;9.940;2022-12-07T15:05:38;4.40;99.90
31074;DHT22;17730;53.552;9.940;2022-12-07T15:08:05;4.40;99.90
31074;DHT22;17730;53.552;9.940;2022-12-07T15:10:33;4.40;99.90
31074;DHT22;17730;53.552;9.940;2022-12-07T15:13:00;4.50;99.90
31074;DHT22;17730;53.552;9.940;2022-12-07T15:15:50;4.40;99.90
31074;DHT22;17730;53.552;9.940;2022-12-07T15:18:16;4.40;99.90
31074;DHT22;17730;53.552;9.940;2022-12-07T15:20:42;4.40;99.90
31074;DHT22;17730;53.552;9.940;2022-12-07T15:23:09;4.30;99.90
31074;DHT22;17730;53.552;9.940;2022-12-07T15:25:34;4.30;1.00
31074;DHT22;17730;53.552;9.940;2022-12-07T15:28:00;4.30;99.90
31074;DHT22;17730;53.552;9.940;2022-12-07T15:30:26;4.30;99.90
31074;DHT22;17730;53.552;9.940;2022-12-07T15:32:53;4.30;1.00
31074;DHT22;17730;53.552;9.940;2022-12-07T15:35:20;4.30;13.70
31074;DHT22;17730;53.552;9.940;2022-12-07T15:37:46;4.30;74.30
31074;DHT22;17730;53.552;9.940;2022-12-07T15:40:12;4.30;1.00
31074;DHT22;17730;53.552;9.940;2022-12-07T15:42:38;4.30;1.00
31074;DHT22;17730;53.552;9.940;2022-12-07T15:45:05;4.20;1.00
31074;DHT22;17730;53.552;9.940;2022-12-07T15:47:34;4.10;39.20
31074;DHT22;17730;53.552;9.940;2022-12-07T15:50:02;4.10;99.90
31074;DHT22;17730;53.552;9.940;2022-12-07T15:52:28;4.00;99.90
31074;DHT22;17730;53.552;9.940;2022-12-07T15:54:53;4.00;99.90
31074;DHT22;17730;53.552;9.940;2022-12-07T15:57:19;4.00;99.90
31074;DHT22;17730;53.552;9.940;2022-12-07T15:59:45;4.00;99.90
31074;DHT22;17730;53.552;9.940;2022-12-07T16:02:10;4.00;99.90
31074;DHT22;17730;53.552;9.940;2022-12-07T16:04:36;4.00;99.90
31074;DHT22;17730;53.552;9.940;2022-12-07T16:07:02;3.90;99.90
31074;DHT22;17730;53.552;9.940;2022-12-07T16:09:28;3.90;99.90
31074;DHT22;17730;53.552;9.940;2022-12-07T16:11:54;3.90;99.90
31074;DHT22;17730;53.552;9.940;2022-12-07T16:14:20;3.90;99.90
31074;DHT22;17730;53.552;9.940;2022-12-07T16:16:47;3.90;99.90
31074;DHT22;17730;53.552;9.940;2022-12-07T16:19:13;4.00;99.90
31074;DHT22;17730;53.552;9.940;2022-12-07T16:21:39;4.00;99.90
31074;DHT22;17730;53.552;9.940;2022-12-07T16:24:05;4.00;99.90
31074;DHT22;17730;53.552;9.940;2022-12-07T16:26:31;4.00;99.90
31074;DHT22;17730;53.552;9.940;2022-12-07T16:28:57;4.00;99.90
31074;DHT22;17730;53.552;9.940;2022-12-07T16:31:25;4.00;90.00
31074;DHT22;17730;53.552;9.940;2022-12-07T16:33:53;4.00;99.90
31074;DHT22;17730;53.552;9.940;2022-12-07T16:36:19;3.90;99.90
31074;DHT22;17730;53.552;9.940;2022-12-07T16:38:47;3.90;99.90
31074;DHT22;17730;53.552;9.940;2022-12-07T16:41:13;3.90;82.60
31074;DHT22;17730;53.552;9.940;2022-12-07T16:43:39;3.80;99.90
31074;DHT22;17730;53.552;9.940;2022-12-07T16:46:05;3.80;99.90
31074;DHT22;17730;53.552;9.940;2022-12-07T16:48:31;3.80;99.90
31074;DHT22;17730;53.552;9.940;2022-12-07T16:50:56;3.90;99.90
31074;DHT22;17730;53.552;9.940;2022-12-07T16:53:23;3.80;99.90
31074;DHT22;17730;53.552;9.940;2022-12-07T16:55:50;3.80;99.90
31074;DHT22;17730;53.552;9.940;2022-12-07T16:58:16;3.80;68.10
31074;DHT22;17730;53.552;9.940;2022-12-07T17:00:43;3.90;64.10
31074;DHT22;17730;53.552;9.940;2022-12-07T17:03:12;3.90;75.30
31074;DHT22;17730;53.552;9.940;2022-12-07T17:05:40;3.80;99.90
31074;DHT22;17730;53.552;9.940;2022-12-07T17:08:07;3.80;99.90
31074;DHT22;17730;53.552;9.940;2022-12-07T17:10:34;3.80;99.90
31074;DHT22;17730;53.552;9.940;2022-12-07T17:13:02;3.80;99.70
31074;DHT22;17730;53.552;9.940;2022-12-07T17:15:55;3.80;99.90
31074;DHT22;17730;53.552;9.940;2022-12-07T17:18:21;3.80;81.60
31074;DHT22;17730;53.552;9.940;2022-12-07T17:20:47;3.80;99.90
31074;DHT22;17730;53.552;9.940;2022-12-07T17:23:12;3.80;99.90
31074;DHT22;17730;53.552;9.940;2022-12-07T17:25:38;3.80;99.90
31074;DHT22;17730;53.552;9.940;2022-12-07T17:28:03;3.80;99.90
31074;DHT22;17730;53.552;9.940;2022-12-07T17:30:29;3.80;99.90
31074;DHT22;17730;53.552;9.940;2022-12-07T17:32:55;3.80;74.50
31074;DHT22;17730;53.552;9.940;2022-12-07T17:35:21;3.70;39.40
31074;DHT22;17730;53.552;9.940;2022-12-07T17:37:47;3.80;1.00
31074;DHT22;17730;53.552;9.940;2022-12-07T17:40:14;3.80;92.90
31074;DHT22;17730;53.552;9.940;2022-12-07T17:42:39;3.80;21.90
31074;DHT22;17730;53.552;9.940;2022-12-07T17:45:08;3.70;99.90
31074;DHT22;17730;53.552;9.940;2022-12-07T17:47:38;3.70;99.90
31074;DHT22;17730;53.552;9.940;2022-12-07T17:50:05;3.60;99.90
31074;DHT22;17730;53.552;9.940;2022-12-07T17:52:31;3.60;1.00
31074;DHT22;17730;53.552;9.940;2022-12-07T17:55:16;3.50;99.90
31074;DHT22;17730;53.552;9.940;2022-12-07T17:57:42;3.40;99.90